Aviation Digital Data Service (ADDS)

Output produced by METARs form (0512 UTC 18 February 2018)
found at http://aviationweather.gov/adds/metars/
 
KFAY 180357Z 1804/1824 VRB03KT 3SM -RADZ BR OVC008 
     FM180900 31007KT 5SM BR BKN015 
     FM181200 32008KT P6SM SCT140 
     FM181400 05007KT P6SM SKC